Time;durP1;ratioP1;P1;durP2;ratioP2;P2;SDS_P1;SDS_P2;PMS_P1;PMS_P2;Temp;Humidity;BMP_temperature;BMP_pressure;BME280_temperature;BME280_humidity;BME280_pressure;Samples;Min_cycle;Max_cycle;Signal;HPM_P1;HPM_P2
2023/08/24 00:01:29;;;;;;;7.22;3.40;;;25.60;97.30;;;;;;4069039;29;20080;-62
2023/08/24 00:03:32;;;;;;;7.90;4.07;;;25.60;97.30;;;;;;4069029;29;20052;-63
2023/08/24 00:05:38;;;;;;;9.32;4.00;;;25.60;97.10;;;;;;4073044;29;20130;-63
2023/08/24 00:07:41;;;;;;;10.05;3.63;;;25.60;97.10;;;;;;4071415;29;20058;-62
2023/08/24 00:09:43;;;;;;;9.00;3.60;;;25.60;97.40;;;;;;4073038;29;20056;-63
2023/08/24 00:11:46;;;;;;;11.95;3.65;;;25.60;97.80;;;;;;4070955;29;20060;-63
2023/08/24 00:13:51;;;;;;;8.88;4.13;;;25.60;97.80;;;;;;4069822;29;20476;-63
2023/08/24 00:15:54;;;;;;;9.85;3.47;;;25.50;97.80;;;;;;4070782;29;20052;-62
2023/08/24 00:17:56;;;;;;;9.15;3.33;;;25.50;97.90;;;;;;4072297;29;20086;-64
2023/08/24 00:20:04;;;;;;;11.73;3.38;;;25.50;97.80;;;;;;4068950;29;20131;-63
2023/08/24 00:22:06;;;;;;;8.93;3.70;;;25.40;97.80;;;;;;4070116;29;20060;-63
2023/08/24 00:24:08;;;;;;;10.65;3.80;;;25.40;97.70;;;;;;4069845;29;20127;-62
2023/08/24 00:26:10;;;;;;;6.68;3.67;;;25.30;97.90;;;;;;4069316;29;20084;-63
2023/08/24 00:28:12;;;;;;;8.57;3.33;;;25.30;98.00;;;;;;4066997;29;20458;-62
2023/08/24 00:30:14;;;;;;;13.02;3.97;;;25.20;98.00;;;;;;4070164;29;20056;-62
2023/08/24 00:32:17;;;;;;;10.63;4.05;;;25.30;98.20;;;;;;4069511;29;20088;-62
2023/08/24 00:34:19;;;;;;;6.60;2.72;;;25.20;98.20;;;;;;4067176;29;20059;-62
2023/08/24 00:36:25;;;;;;;8.55;3.38;;;25.10;98.10;;;;;;4068042;29;20048;-62
2023/08/24 00:38:27;;;;;;;7.35;3.20;;;25.10;98.10;;;;;;4067067;29;20091;-62
2023/08/24 00:40:29;;;;;;;11.25;3.60;;;25.10;98.00;;;;;;4069691;29;20100;-62
2023/08/24 00:42:31;;;;;;;6.45;2.88;;;25.10;98.00;;;;;;4068729;29;20127;-62
2023/08/24 00:44:33;;;;;;;8.13;3.40;;;25.10;98.00;;;;;;4067915;29;20048;-62
2023/08/24 00:46:36;;;;;;;7.82;3.45;;;25.00;98.00;;;;;;4068106;29;20087;-62
2023/08/24 00:48:38;;;;;;;11.63;3.50;;;25.10;98.00;;;;;;4066925;29;20052;-61
2023/08/24 00:50:40;;;;;;;7.65;3.50;;;25.00;98.10;;;;;;4067637;29;20054;-62
2023/08/24 00:52:44;;;;;;;7.30;3.28;;;25.00;98.10;;;;;;4068008;29;20445;-61
2023/08/24 00:54:47;;;;;;;7.30;3.00;;;24.90;98.10;;;;;;4068953;29;20134;-63
2023/08/24 00:56:49;;;;;;;7.28;3.40;;;24.90;98.10;;;;;;4069252;29;20079;-62
2023/08/24 00:58:53;;;;;;;6.97;3.13;;;24.90;98.20;;;;;;4068297;29;20068;-62
2023/08/24 01:00:57;;;;;;;8.63;3.33;;;24.90;98.20;;;;;;4069278;29;20078;-61
2023/08/24 01:02:59;;;;;;;11.00;3.85;;;24.90;98.20;;;;;;4069854;29;20052;-61
2023/08/24 01:05:01;;;;;;;7.90;3.30;;;24.80;98.10;;;;;;4067792;29;20075;-62
2023/08/24 01:07:03;;;;;;;7.60;3.28;;;24.80;98.10;;;;;;4069235;29;20052;-61
2023/08/24 01:09:07;;;;;;;9.25;3.30;;;24.70;98.10;;;;;;4068906;29;20067;-62
2023/08/24 01:11:18;;;;;;;10.15;3.47;;;24.70;98.10;;;;;;4070763;29;20123;-61
2023/08/24 01:13:29;;;;;;;8.52;3.05;;;24.70;98.10;;;;;;4070079;29;20052;-62
2023/08/24 01:15:38;;;;;;;9.45;3.95;;;24.70;98.10;;;;;;4062669;29;20049;-63
2023/08/24 01:17:43;;;;;;;10.95;3.38;;;24.70;98.10;;;;;;4054532;29;20049;-63
2023/08/24 01:19:46;;;;;;;7.78;3.75;;;24.70;98.20;;;;;;4055962;29;20053;-63
2023/08/24 01:21:50;;;;;;;12.18;4.05;;;24.60;98.10;;;;;;4056805;29;20049;-62
2023/08/24 01:24:03;;;;;;;13.10;3.28;;;24.60;98.40;;;;;;4057108;29;20055;-62
2023/08/24 01:26:10;;;;;;;9.07;3.47;;;24.60;98.10;;;;;;4056537;29;20048;-63
2023/08/24 01:28:14;;;;;;;9.65;3.47;;;24.60;98.20;;;;;;4056793;29;20053;-63
2023/08/24 01:30:17;;;;;;;9.23;3.30;;;24.60;98.20;;;;;;4058507;29;20045;-62
2023/08/24 01:32:20;;;;;;;5.25;3.20;;;24.60;98.30;;;;;;4058619;29;20080;-61
2023/08/24 01:34:22;;;;;;;10.43;3.38;;;24.60;98.20;;;;;;4058173;29;20081;-62
2023/08/24 01:36:25;;;;;;;7.43;3.25;;;24.60;98.20;;;;;;4055548;29;20053;-62
2023/08/24 01:38:28;;;;;;;10.82;4.10;;;24.60;98.30;;;;;;4054461;29;20058;-63
2023/08/24 01:40:43;;;;;;;7.72;3.50;;;24.60;98.30;;;;;;4055732;29;20100;-61
2023/08/24 01:42:53;;;;;;;7.47;3.55;;;24.60;98.40;;;;;;4055719;29;20048;-62
2023/08/24 01:44:58;;;;;;;9.00;3.33;;;24.60;98.40;;;;;;4057103;29;20086;-63
2023/08/24 01:47:03;;;;;;;9.93;4.03;;;24.50;98.40;;;;;;4056643;29;20064;-63
2023/08/24 01:49:05;;;;;;;;;;;24.50;98.60;;;;;;4055524;29;20085;-63
2023/08/24 01:51:10;;;;;;;9.85;3.63;;;24.40;98.70;;;;;;4055712;29;19927;-62
2023/08/24 01:53:12;;;;;;;7.18;3.30;;;24.40;98.80;;;;;;4055735;29;20056;-62
2023/08/24 01:55:17;;;;;;;9.52;3.15;;;24.30;99.00;;;;;;4065091;29;20064;-63
2023/08/24 01:57:19;;;;;;;;;;;24.30;99.00;;;;;;4060043;29;20045;-63
2023/08/24 01:59:22;;;;;;;11.30;3.80;;;24.20;99.10;;;;;;4056774;29;20022;-62
2023/08/24 02:01:25;;;;;;;7.57;3.45;;;24.20;99.00;;;;;;4054130;29;20174;-62
2023/08/24 02:03:27;;;;;;;7.88;3.65;;;24.20;99.00;;;;;;4053376;29;20276;-60
2023/08/24 02:05:29;;;;;;;9.75;3.35;;;24.20;99.00;;;;;;4054837;29;20052;-61
2023/08/24 02:07:31;;;;;;;6.32;3.28;;;24.20;99.00;;;;;;4054590;29;20056;-61
2023/08/24 02:09:33;;;;;;;5.72;3.03;;;24.20;99.00;;;;;;4054762;29;20138;-63
2023/08/24 02:11:35;;;;;;;8.52;3.50;;;24.20;99.00;;;;;;4055005;29;20130;-61
2023/08/24 02:13:37;;;;;;;8.60;2.95;;;24.20;99.00;;;;;;4054423;29;20529;-61
2023/08/24 02:15:41;;;;;;;7.75;3.40;;;24.20;99.10;;;;;;4065872;29;20044;-61
2023/08/24 02:17:44;;;;;;;6.82;3.30;;;24.20;99.10;;;;;;4069121;29;20406;-64
2023/08/24 02:19:46;;;;;;;6.95;3.38;;;24.10;99.30;;;;;;4069070;29;20048;-61
2023/08/24 02:21:48;;;;;;;11.60;3.40;;;24.00;99.30;;;;;;4069846;29;20111;-63
2023/08/24 02:23:50;;;;;;;9.07;3.22;;;24.10;99.30;;;;;;4069380;29;20076;-62
2023/08/24 02:25:52;;;;;;;6.47;3.53;;;24.00;99.40;;;;;;4069437;29;20054;-63
2023/08/24 02:27:54;;;;;;;4.20;3.15;;;24.00;99.40;;;;;;4068666;29;20062;-64
2023/08/24 02:29:56;;;;;;;12.35;3.97;;;24.00;99.40;;;;;;4068845;29;20040;-64
2023/08/24 02:32:00;;;;;;;7.25;3.80;;;24.00;99.40;;;;;;4069306;29;20044;-63
2023/08/24 02:34:02;;;;;;;9.60;3.63;;;24.00;99.40;;;;;;4069946;29;20052;-63
2023/08/24 02:36:05;;;;;;;6.10;3.00;;;24.00;99.50;;;;;;4070087;29;20127;-63
2023/08/24 02:38:07;;;;;;;11.68;3.38;;;23.90;99.50;;;;;;4068220;29;20060;-63
2023/08/24 02:40:09;;;;;;;6.32;3.28;;;23.90;99.50;;;;;;4069128;29;20119;-61
2023/08/24 02:42:11;;;;;;;6.90;3.00;;;23.90;99.50;;;;;;4069345;29;20082;-60
2023/08/24 02:44:13;;;;;;;7.18;3.42;;;23.90;99.50;;;;;;4068546;29;20094;-61
2023/08/24 02:46:15;;;;;;;4.18;2.80;;;23.80;99.60;;;;;;4069194;29;20044;-61
2023/08/24 02:48:19;;;;;;;9.70;3.88;;;23.80;99.70;;;;;;4068122;29;20059;-60
2023/08/24 02:50:21;;;;;;;9.07;3.58;;;23.70;99.70;;;;;;4069843;29;20072;-60
2023/08/24 02:52:23;;;;;;;8.18;3.30;;;23.70;99.70;;;;;;4070697;29;20087;-60
2023/08/24 02:54:25;;;;;;;12.82;3.65;;;23.80;99.70;;;;;;4071302;29;20052;-64
2023/08/24 02:56:27;;;;;;;7.13;3.53;;;23.70;99.70;;;;;;4072590;29;20143;-63
2023/08/24 02:58:30;;;;;;;5.28;3.00;;;23.80;99.80;;;;;;4068429;29;20050;-61
2023/08/24 03:00:32;;;;;;;6.88;3.17;;;23.80;99.70;;;;;;4067862;29;20534;-61
2023/08/24 03:02:34;;;;;;;8.02;3.15;;;23.70;99.80;;;;;;4069119;29;20056;-64
2023/08/24 03:04:38;;;;;;;10.25;3.55;;;23.70;99.70;;;;;;4069187;29;20406;-63
2023/08/24 03:06:40;;;;;;;6.40;3.65;;;23.70;99.70;;;;;;4068970;29;20475;-60
2023/08/24 03:08:42;;;;;;;7.18;3.60;;;23.80;99.60;;;;;;4068094;29;20406;-60
2023/08/24 03:10:44;;;;;;;7.22;3.35;;;23.80;99.60;;;;;;4068771;29;20040;-61
2023/08/24 03:12:46;;;;;;;8.23;3.22;;;23.80;99.50;;;;;;4067402;29;20102;-61
2023/08/24 03:14:51;;;;;;;8.18;3.05;;;23.80;99.50;;;;;;4068758;29;20052;-60
2023/08/24 03:16:53;;;;;;;6.57;3.08;;;23.70;99.50;;;;;;4068708;29;20048;-63
2023/08/24 03:18:58;;;;;;;9.50;3.72;;;23.70;99.70;;;;;;4067718;29;20048;-61
2023/08/24 03:21:02;;;;;;;6.22;3.65;;;23.70;99.40;;;;;;4068534;29;20048;-62
2023/08/24 03:23:04;;;;;;;8.00;3.35;;;23.70;99.30;;;;;;4068745;29;20483;-64
2023/08/24 03:25:07;;;;;;;6.40;3.20;;;23.80;99.20;;;;;;4068246;29;20048;-62
2023/08/24 03:27:09;;;;;;;11.35;3.40;;;23.70;99.20;;;;;;4068132;29;20091;-61
2023/08/24 03:29:11;;;;;;;7.10;3.42;;;23.70;99.20;;;;;;4067830;29;20119;-61
2023/08/24 03:31:13;;;;;;;9.20;3.15;;;23.70;99.10;;;;;;4068458;29;20048;-61
2023/08/24 03:33:15;;;;;;;9.27;3.13;;;23.70;99.10;;;;;;4068445;29;20553;-61
2023/08/24 03:35:18;;;;;;;5.43;3.17;;;23.70;99.00;;;;;;4068414;29;20060;-61
2023/08/24 03:37:21;;;;;;;8.43;3.35;;;23.70;99.00;;;;;;4068479;29;20446;-61
2023/08/24 03:39:23;;;;;;;7.63;3.40;;;23.80;99.00;;;;;;4067594;29;20111;-60
2023/08/24 03:41:25;;;;;;;7.32;3.47;;;23.70;98.90;;;;;;4068158;29;20152;-63
2023/08/24 03:43:27;;;;;;;5.90;3.80;;;23.70;98.90;;;;;;4068132;29;20063;-61
2023/08/24 03:45:29;;;;;;;7.50;4.18;;;23.70;98.90;;;;;;4068225;29;20072;-62
2023/08/24 03:47:32;;;;;;;10.15;3.85;;;23.80;98.90;;;;;;4068313;29;20052;-62
2023/08/24 03:49:34;;;;;;;6.55;3.80;;;23.70;98.80;;;;;;4067807;29;20072;-63
2023/08/24 03:51:36;;;;;;;7.07;3.78;;;23.70;98.80;;;;;;4069241;29;20123;-60
2023/08/24 03:53:39;;;;;;;6.95;3.28;;;23.70;98.80;;;;;;4069614;29;20086;-61
2023/08/24 03:55:41;;;;;;;11.80;3.70;;;23.80;98.70;;;;;;4069457;29;20082;-61
2023/08/24 03:57:43;;;;;;;9.52;3.50;;;23.70;98.70;;;;;;4069549;29;20044;-62
2023/08/24 03:59:45;;;;;;;7.15;3.05;;;23.80;98.60;;;;;;4068040;29;20044;-61
2023/08/24 04:01:48;;;;;;;7.05;3.10;;;23.70;98.70;;;;;;4068252;29;20161;-62
2023/08/24 04:03:50;;;;;;;10.55;3.55;;;23.70;98.60;;;;;;4068685;29;20204;-60
2023/08/24 04:05:52;;;;;;;9.57;3.30;;;23.70;98.50;;;;;;4068145;29;20376;-61
2023/08/24 04:07:54;;;;;;;5.78;3.25;;;23.80;98.50;;;;;;4067670;29;20099;-63
2023/08/24 04:09:57;;;;;;;8.85;3.05;;;23.80;98.50;;;;;;4067763;29;20048;-63
2023/08/24 04:12:00;;;;;;;8.80;3.28;;;23.70;98.60;;;;;;4068254;29;20074;-63
2023/08/24 04:14:02;;;;;;;9.40;3.20;;;23.80;98.50;;;;;;4070490;29;20055;-62
2023/08/24 04:16:04;;;;;;;7.50;3.35;;;23.70;98.50;;;;;;4069139;29;20044;-64
2023/08/24 04:18:06;;;;;;;6.32;3.42;;;23.80;98.80;;;;;;4071106;29;20052;-62
2023/08/24 04:20:10;;;;;;;4.57;3.03;;;23.80;98.50;;;;;;4071162;29;20048;-62
2023/08/24 04:22:12;;;;;;;4.15;3.08;;;23.80;98.60;;;;;;4069439;29;20143;-61
2023/08/24 04:24:14;;;;;;;6.90;3.03;;;23.70;98.70;;;;;;4067720;29;20067;-61
2023/08/24 04:26:17;;;;;;;5.50;3.25;;;23.70;98.60;;;;;;4067930;29;20407;-61
2023/08/24 04:28:20;;;;;;;9.20;3.70;;;23.70;98.50;;;;;;4067056;29;20076;-60
2023/08/24 04:30:22;;;;;;;9.95;3.90;;;23.80;98.50;;;;;;4067823;29;20048;-61
2023/08/24 04:32:24;;;;;;;6.68;3.15;;;23.70;98.50;;;;;;4066527;29;20111;-61
2023/08/24 04:34:26;;;;;;;8.05;3.25;;;23.70;98.50;;;;;;4067730;29;20127;-61
2023/08/24 04:36:28;;;;;;;7.95;3.65;;;23.70;98.40;;;;;;4067700;29;20056;-61
2023/08/24 04:38:31;;;;;;;5.30;3.28;;;23.70;98.40;;;;;;4067379;29;20394;-59
2023/08/24 04:40:48;;;;;;;7.35;3.28;;;23.80;98.40;;;;;;4067562;29;20049;-61
2023/08/24 04:42:52;;;;;;;8.65;3.20;;;23.70;98.70;;;;;;4066899;29;20056;-61
2023/08/24 04:44:54;;;;;;;6.50;3.65;;;23.70;99.10;;;;;;4071379;29;20064;-61
2023/08/24 04:46:56;;;;;;;5.88;3.38;;;23.60;99.30;;;;;;4070629;29;20270;-61
2023/08/24 04:48:58;;;;;;;7.93;3.30;;;23.60;99.20;;;;;;4070365;29;20140;-60
2023/08/24 04:51:01;;;;;;;15.63;3.83;;;23.60;98.90;;;;;;4071505;29;20044;-60
2023/08/24 04:53:03;;;;;;;6.68;3.50;;;23.60;98.50;;;;;;4070922;29;20060;-60
2023/08/24 04:55:06;;;;;;;10.75;3.30;;;23.60;98.60;;;;;;4070409;29;20466;-60
2023/08/24 04:57:08;;;;;;;11.90;3.60;;;23.60;98.30;;;;;;4070781;29;20051;-61
2023/08/24 04:59:12;;;;;;;7.63;3.00;;;23.60;98.30;;;;;;4069727;29;20055;-60
2023/08/24 05:01:14;;;;;;;10.45;3.63;;;23.60;98.40;;;;;;4070874;29;20099;-60
2023/08/24 05:03:16;;;;;;;5.50;2.67;;;23.60;98.30;;;;;;4070807;29;20055;-61
2023/08/24 05:05:19;;;;;;;11.15;3.15;;;23.60;98.00;;;;;;4070673;29;20071;-59
2023/08/24 05:07:21;;;;;;;9.95;3.50;;;23.60;98.00;;;;;;4070779;29;20052;-60
2023/08/24 05:09:23;;;;;;;11.13;3.15;;;23.70;97.90;;;;;;4069487;29;20052;-62
2023/08/24 05:11:29;;;;;;;11.60;3.08;;;23.70;97.90;;;;;;4070667;29;20072;-62
2023/08/24 05:13:31;;;;;;;5.75;2.92;;;23.70;97.80;;;;;;4070884;29;20382;-60
2023/08/24 05:15:34;;;;;;;6.55;3.10;;;23.70;97.70;;;;;;4070639;29;20060;-63
2023/08/24 05:17:36;;;;;;;7.78;3.30;;;23.70;97.70;;;;;;4070974;29;20048;-63
2023/08/24 05:19:38;;;;;;;4.80;2.88;;;23.70;97.70;;;;;;4069782;29;20490;-62
2023/08/24 05:21:40;;;;;;;5.65;2.90;;;23.70;97.80;;;;;;4071038;29;20080;-60
2023/08/24 05:23:42;;;;;;;10.18;3.33;;;23.70;97.70;;;;;;4070727;29;20115;-62
2023/08/24 05:25:44;;;;;;;5.88;2.60;;;23.70;97.70;;;;;;4071520;29;20052;-62
2023/08/24 05:27:47;;;;;;;8.52;3.08;;;23.70;97.70;;;;;;4070906;29;20052;-63
2023/08/24 05:29:50;;;;;;;6.70;2.78;;;23.80;97.60;;;;;;4070001;29;20098;-61
2023/08/24 05:31:53;;;;;;;10.45;3.22;;;23.80;97.40;;;;;;4069841;29;20140;-61
2023/08/24 05:33:55;;;;;;;6.47;2.80;;;23.80;97.50;;;;;;4071753;29;20059;-63
2023/08/24 05:35:58;;;;;;;5.00;2.78;;;23.90;97.30;;;;;;4074704;29;20169;-62
2023/08/24 05:38:01;;;;;;;7.10;3.40;;;23.90;97.50;;;;;;4074025;29;20052;-61
2023/08/24 05:40:05;;;;;;;5.30;3.10;;;23.90;97.20;;;;;;4071651;29;20562;-61
2023/08/24 05:42:07;;;;;;;8.15;3.05;;;24.00;97.40;;;;;;4072522;29;20399;-61
2023/08/24 05:44:10;;;;;;;8.63;3.13;;;24.00;97.20;;;;;;4070541;29;20056;-61
2023/08/24 05:46:12;;;;;;;8.55;3.30;;;24.10;97.10;;;;;;4070127;29;20454;-61
2023/08/24 05:48:16;;;;;;;9.35;3.13;;;24.10;97.10;;;;;;4070622;29;20044;-61
2023/08/24 05:50:18;;;;;;;8.13;3.40;;;24.20;97.00;;;;;;4071116;29;20143;-61
2023/08/24 05:52:20;;;;;;;8.70;3.35;;;24.30;96.70;;;;;;4070330;29;20064;-61
2023/08/24 05:54:22;;;;;;;6.97;2.90;;;24.30;96.70;;;;;;4069961;29;20048;-61
2023/08/24 05:56:24;;;;;;;6.82;3.50;;;24.40;96.40;;;;;;4070297;29;20456;-61
2023/08/24 05:58:26;;;;;;;4.70;2.97;;;24.50;96.20;;;;;;4069729;29;20503;-61
2023/08/24 06:00:29;;;;;;;10.52;3.33;;;24.60;96.00;;;;;;4070840;29;20076;-61
2023/08/24 06:02:32;;;;;;;7.43;3.10;;;24.70;95.70;;;;;;4071039;29;20052;-61
2023/08/24 06:04:35;;;;;;;8.00;2.97;;;24.70;95.60;;;;;;4070788;29;20128;-61
2023/08/24 06:06:37;;;;;;;11.48;2.95;;;24.70;95.40;;;;;;4070675;29;20055;-61
2023/08/24 06:08:39;;;;;;;6.55;2.97;;;24.80;95.30;;;;;;4070060;29;20056;-61
2023/08/24 06:10:41;;;;;;;6.38;2.75;;;24.80;95.40;;;;;;4070951;29;20052;-61
2023/08/24 06:12:44;;;;;;;13.40;3.30;;;24.90;95.50;;;;;;4071358;29;20135;-61
2023/08/24 06:14:46;;;;;;;8.32;3.22;;;24.90;95.40;;;;;;4070518;29;20119;-64
2023/08/24 06:16:48;;;;;;;7.65;3.50;;;24.90;95.40;;;;;;4069878;29;20368;-61
2023/08/24 06:18:51;;;;;;;9.40;3.08;;;24.90;95.50;;;;;;4069091;29;20052;-61
2023/08/24 06:20:54;;;;;;;6.88;3.78;;;24.90;95.30;;;;;;4070911;29;20048;-64
2023/08/24 06:22:56;;;;;;;6.60;3.10;;;24.90;94.70;;;;;;4073172;29;20067;-62
2023/08/24 06:25:01;;;;;;;14.00;3.83;;;24.90;95.10;;;;;;4069571;29;20075;-61
2023/08/24 06:27:03;;;;;;;13.63;3.42;;;24.90;95.00;;;;;;4070056;29;20131;-63
2023/08/24 06:29:05;;;;;;;11.25;3.60;;;24.90;95.20;;;;;;4069395;29;20062;-62
2023/08/24 06:31:07;;;;;;;7.38;3.22;;;24.90;95.20;;;;;;4069983;29;20123;-63
2023/08/24 06:33:10;;;;;;;11.98;3.08;;;24.90;95.50;;;;;;4069909;29;20212;-63
2023/08/24 06:35:16;;;;;;;9.20;3.17;;;24.90;95.50;;;;;;4072382;29;20048;-61
2023/08/24 06:37:19;;;;;;;13.27;3.72;;;25.00;95.40;;;;;;4071055;29;20044;-60
2023/08/24 06:39:21;;;;;;;12.23;3.17;;;25.00;95.20;;;;;;4072749;29;20120;-62
2023/08/24 06:41:23;;;;;;;10.73;3.25;;;25.00;95.30;;;;;;4078062;29;20502;-64
2023/08/24 06:43:26;;;;;;;7.18;2.88;;;25.10;94.80;;;;;;4074474;29;20083;-61
2023/08/24 06:45:28;;;;;;;8.70;3.28;;;25.10;94.60;;;;;;4071284;29;20082;-61
2023/08/24 06:47:30;;;;;;;12.10;3.15;;;25.10;94.70;;;;;;4071596;29;20051;-61
2023/08/24 06:49:32;;;;;;;6.07;2.95;;;25.20;94.60;;;;;;4069696;29;20521;-59
2023/08/24 06:51:34;;;;;;;7.25;3.20;;;25.20;94.60;;;;;;4069481;29;20064;-64
2023/08/24 06:53:38;;;;;;;8.77;3.03;;;25.30;94.40;;;;;;4070480;29;20056;-62
2023/08/24 06:55:40;;;;;;;13.32;3.63;;;25.30;94.30;;;;;;4071403;29;20056;-61
2023/08/24 06:57:47;;;;;;;7.97;2.85;;;25.40;94.20;;;;;;4074455;29;20048;-62
2023/08/24 06:59:50;;;;;;;6.20;3.00;;;25.40;94.10;;;;;;4073894;29;20629;-61
2023/08/24 07:01:52;;;;;;;9.23;3.20;;;25.50;94.10;;;;;;4075539;29;20058;-61
2023/08/24 07:03:55;;;;;;;10.10;3.10;;;25.60;94.20;;;;;;4073901;29;20055;-61
2023/08/24 07:05:57;;;;;;;5.82;2.70;;;25.70;94.00;;;;;;4071684;29;20048;-63
2023/08/24 07:08:00;;;;;;;13.98;3.78;;;25.80;93.90;;;;;;4070696;29;20131;-63
2023/08/24 07:10:04;;;;;;;7.03;2.75;;;25.80;94.20;;;;;;4069684;29;20051;-61
2023/08/24 07:12:09;;;;;;;15.88;3.58;;;25.90;93.90;;;;;;4070326;29;20056;-61
2023/08/24 07:14:11;;;;;;;10.60;3.80;;;25.90;94.00;;;;;;4070447;29;20055;-64
2023/08/24 07:16:14;;;;;;;16.42;4.70;;;26.00;94.40;;;;;;4054295;29;20067;-62
2023/08/24 07:18:16;;;;;;;13.63;3.58;;;26.10;94.20;;;;;;4054876;29;20506;-62
2023/08/24 07:20:19;;;;;;;13.27;3.55;;;26.10;94.10;;;;;;4058196;29;20406;-61
2023/08/24 07:22:21;;;;;;;9.75;3.90;;;26.20;94.00;;;;;;4059107;29;20048;-62
2023/08/24 07:24:26;;;;;;;11.88;3.45;;;26.20;93.40;;;;;;4058349;29;20517;-61
2023/08/24 07:26:46;;;;;;;12.63;3.45;;;26.30;93.60;;;;;;4056331;29;20048;-64
2023/08/24 07:28:48;;;;;;;12.52;2.97;;;26.40;92.80;;;;;;4053815;29;20642;-63
2023/08/24 07:30:53;;;;;;;9.50;3.05;;;26.40;92.80;;;;;;4053858;29;20064;-63
2023/08/24 07:32:55;;;;;;;7.07;2.83;;;26.40;92.40;;;;;;4053964;29;20048;-61
2023/08/24 07:34:59;;;;;;;6.88;2.83;;;26.40;92.20;;;;;;4053763;29;20052;-61
2023/08/24 07:37:01;;;;;;;11.48;3.03;;;26.30;92.10;;;;;;4069539;29;20054;-62
2023/08/24 07:39:03;;;;;;;6.80;2.45;;;26.30;92.40;;;;;;4053566;29;20472;-62
2023/08/24 07:41:06;;;;;;;7.50;2.83;;;26.30;92.40;;;;;;4055502;29;20045;-62
2023/08/24 07:43:10;;;;;;;10.07;3.05;;;26.30;92.70;;;;;;4053004;29;20067;-61
2023/08/24 07:45:12;;;;;;;8.30;2.33;;;26.20;92.80;;;;;;4053622;29;20051;-64
2023/08/24 07:47:14;;;;;;;8.93;2.85;;;26.30;92.60;;;;;;4054297;29;20483;-63
2023/08/24 07:49:16;;;;;;;5.72;2.38;;;26.30;92.60;;;;;;4052036;29;20373;-63
2023/08/24 07:51:18;;;;;;;7.35;2.85;;;26.20;92.80;;;;;;4053721;29;20132;-61
2023/08/24 07:53:20;;;;;;;6.95;2.30;;;26.20;93.10;;;;;;4054430;29;20087;-61
2023/08/24 07:55:23;;;;;;;7.53;3.28;;;26.20;93.00;;;;;;4054683;29;20490;-61
2023/08/24 07:57:26;;;;;;;8.57;2.90;;;26.30;93.10;;;;;;4054643;29;20125;-63
2023/08/24 07:59:29;;;;;;;7.60;3.08;;;26.50;93.00;;;;;;4052908;29;20052;-61
2023/08/24 08:01:31;;;;;;;7.32;3.05;;;26.60;92.50;;;;;;4054983;29;20060;-61
2023/08/24 08:03:35;;;;;;;6.97;2.83;;;26.70;92.50;;;;;;4053714;29;20131;-60
2023/08/24 08:05:37;;;;;;;8.88;3.30;;;26.90;92.30;;;;;;4052337;29;20076;-60
2023/08/24 08:07:39;;;;;;;8.00;3.05;;;26.90;92.10;;;;;;4052346;29;20547;-63
2023/08/24 08:09:42;;;;;;;11.15;3.60;;;27.00;92.00;;;;;;4051341;29;20063;-61
2023/08/24 08:11:45;;;;;;;8.23;3.28;;;27.10;92.00;;;;;;4050877;29;20575;-61
2023/08/24 08:13:48;;;;;;;7.60;3.22;;;27.20;92.00;;;;;;4052711;29;20053;-61
2023/08/24 08:15:52;;;;;;;5.53;2.90;;;27.30;91.80;;;;;;4064877;29;20056;-60
2023/08/24 08:17:54;;;;;;;7.22;3.13;;;27.40;91.80;;;;;;4070246;29;20380;-61
2023/08/24 08:19:57;;;;;;;6.47;3.00;;;27.40;91.00;;;;;;4072448;29;20052;-61
2023/08/24 08:21:59;;;;;;;13.48;3.80;;;27.40;91.50;;;;;;4074336;29;20044;-60
2023/08/24 08:24:01;;;;;;;22.02;4.40;;;27.30;91.50;;;;;;4075020;29;20052;-60
2023/08/24 08:26:03;;;;;;;15.25;4.10;;;27.20;91.80;;;;;;4079264;29;20074;-66
2023/08/24 08:28:05;;;;;;;13.25;4.57;;;27.30;92.70;;;;;;4076412;29;20048;-60
2023/08/24 08:30:08;;;;;;;14.05;3.78;;;27.30;92.70;;;;;;4076643;29;20131;-60
2023/08/24 08:32:12;;;;;;;13.95;3.90;;;27.30;92.50;;;;;;4076807;29;20064;-60
2023/08/24 08:34:14;;;;;;;17.15;3.88;;;27.20;92.40;;;;;;4076562;29;20409;-63
2023/08/24 08:36:16;;;;;;;17.98;4.93;;;27.20;92.70;;;;;;4075722;29;20071;-61
2023/08/24 08:38:21;;;;;;;20.67;4.70;;;27.20;92.60;;;;;;4073893;29;20067;-60
2023/08/24 08:40:28;;;;;;;18.63;4.22;;;27.20;92.50;;;;;;4072735;29;20052;-61
2023/08/24 08:42:31;;;;;;;16.65;4.40;;;27.30;92.60;;;;;;4073915;29;20083;-60
2023/08/24 08:44:33;;;;;;;10.90;3.70;;;27.30;92.40;;;;;;4073643;29;20048;-63
2023/08/24 08:46:35;;;;;;;9.75;3.55;;;27.30;92.70;;;;;;4072751;29;20056;-63
2023/08/24 08:48:41;;;;;;;15.40;4.22;;;27.30;93.00;;;;;;4075538;29;20067;-62
2023/08/24 08:50:44;;;;;;;20.00;4.13;;;27.20;93.00;;;;;;4072978;29;20397;-62
2023/08/24 08:52:46;;;;;;;18.92;4.50;;;27.10;93.10;;;;;;4077110;29;20155;-60
2023/08/24 08:54:48;;;;;;;14.82;4.03;;;27.10;93.10;;;;;;4078360;29;20056;-60
2023/08/24 08:56:51;;;;;;;16.75;4.57;;;27.00;93.20;;;;;;4079807;29;20055;-60
2023/08/24 08:58:55;;;;;;;16.85;3.92;;;27.10;93.00;;;;;;4073816;29;20430;-63
2023/08/24 09:00:59;;;;;;;10.00;3.45;;;27.20;93.00;;;;;;4088954;29;20474;-63
2023/08/24 09:03:04;;;;;;;54.47;5.90;;;27.20;93.00;;;;;;4080014;29;20056;-63
2023/08/24 09:05:08;;;;;;;;;;;27.20;93.10;;;;;;4082245;29;20211;-63
2023/08/24 09:07:11;;;;;;;9.32;3.53;;;27.30;92.90;;;;;;4074419;29;19923;-63
2023/08/24 09:09:14;;;;;;;16.58;4.45;;;27.20;93.20;;;;;;4076373;29;20048;-63
2023/08/24 09:11:21;;;;;;;7.30;3.88;;;27.20;93.10;;;;;;4076729;29;20127;-63
2023/08/24 09:13:23;;;;;;;16.55;3.97;;;27.30;92.80;;;;;;4074694;29;20136;-62
2023/08/24 09:15:26;;;;;;;9.55;3.67;;;27.30;92.80;;;;;;4074294;29;20044;-62
2023/08/24 09:17:28;;;;;;;12.68;3.67;;;27.40;92.70;;;;;;4074971;29;20099;-63
2023/08/24 09:19:35;;;;;;;14.40;3.50;;;27.60;92.80;;;;;;4072902;29;20056;-63
2023/08/24 09:21:41;;;;;;;10.77;3.22;;;27.80;92.50;;;;;;4073207;29;20127;-63
2023/08/24 09:23:45;;;;;;;8.20;3.53;;;27.80;92.00;;;;;;4074088;29;20475;-63
2023/08/24 09:25:48;;;;;;;21.30;3.83;;;27.50;92.10;;;;;;4073552;29;20146;-63
2023/08/24 09:27:58;;;;;;;17.02;3.75;;;27.50;92.10;;;;;;4073500;29;20055;-63
2023/08/24 09:30:00;;;;;;;5.78;3.15;;;27.50;92.10;;;;;;4071099;29;20068;-63
2023/08/24 09:32:02;;;;;;;12.23;3.10;;;27.30;91.80;;;;;;4071200;29;20486;-63
2023/08/24 09:34:05;;;;;;;9.70;3.90;;;27.20;91.90;;;;;;4073704;29;20127;-63
2023/08/24 09:36:08;;;;;;;8.05;2.92;;;27.10;91.80;;;;;;4071151;29;20075;-63
2023/08/24 09:38:21;;;;;;;10.02;3.28;;;27.00;92.00;;;;;;4073040;29;20059;-68
2023/08/24 09:40:25;;;;;;;9.88;3.22;;;27.00;92.00;;;;;;4069896;29;20058;-62
2023/08/24 09:42:27;;;;;;;10.13;3.35;;;27.00;92.30;;;;;;4070524;29;20051;-62
2023/08/24 09:44:31;;;;;;;14.60;4.10;;;27.00;92.30;;;;;;4071757;29;20051;-65
2023/08/24 09:46:34;;;;;;;11.73;4.07;;;27.00;92.30;;;;;;4076013;29;20223;-62
2023/08/24 09:48:38;;;;;;;13.32;4.00;;;27.10;92.30;;;;;;4076306;29;20054;-65
2023/08/24 09:50:46;;;;;;;11.10;3.63;;;27.20;92.30;;;;;;4076380;29;20071;-62
2023/08/24 09:52:52;;;;;;;7.30;3.40;;;27.20;92.00;;;;;;4073654;29;20048;-60
2023/08/24 09:54:57;;;;;;;13.55;3.60;;;27.20;92.30;;;;;;4071173;29;20502;-62
2023/08/24 09:56:59;;;;;;;;;;;27.30;92.10;;;;;;4071606;29;20143;-62
2023/08/24 09:59:10;;;;;;;15.82;3.97;;;27.30;92.00;;;;;;4069861;29;20334;-62
2023/08/24 10:01:13;;;;;;;9.32;3.13;;;27.30;92.00;;;;;;4070131;29;20103;-63
2023/08/24 10:03:20;;;;;;;12.57;3.35;;;27.30;91.90;;;;;;4069008;29;20052;-61
2023/08/24 10:05:25;;;;;;;13.43;3.38;;;27.30;91.90;;;;;;4070037;29;20135;-61
2023/08/24 10:07:43;;;;;;;21.98;4.88;;;27.30;91.90;;;;;;4073665;29;20117;-63
2023/08/24 10:09:53;;;;;;;8.13;2.90;;;27.30;91.90;;;;;;4071369;29;20048;-63
2023/08/24 10:12:00;;;;;;;8.25;3.08;;;27.30;91.80;;;;;;4068540;29;20049;-62
2023/08/24 10:14:10;;;;;;;8.05;3.33;;;27.20;91.80;;;;;;4071874;29;20060;-61
2023/08/24 10:16:13;;;;;;;10.50;4.47;;;27.10;92.00;;;;;;4069233;29;20060;-61
2023/08/24 10:18:16;;;;;;;20.58;4.18;;;27.20;92.10;;;;;;4071796;29;20055;-61
2023/08/24 10:20:20;;;;;;;14.50;3.78;;;27.20;92.10;;;;;;4072082;29;20048;-60
2023/08/24 10:22:22;;;;;;;10.75;3.92;;;27.20;91.90;;;;;;4068862;29;20530;-60
2023/08/24 10:24:25;;;;;;;8.82;3.40;;;27.20;92.20;;;;;;4069501;29;20141;-63
2023/08/24 10:26:28;;;;;;;8.18;4.07;;;27.30;92.10;;;;;;4069721;29;20447;-63
2023/08/24 10:28:32;;;;;;;6.72;3.13;;;27.40;92.10;;;;;;4069512;29;20059;-63
2023/08/24 10:30:36;;;;;;;7.47;3.10;;;27.40;92.10;;;;;;4068864;29;20530;-60
2023/08/24 10:32:40;;;;;;;6.10;3.35;;;27.50;92.00;;;;;;4070093;29;20127;-62
2023/08/24 10:34:43;;;;;;;8.60;3.10;;;27.40;92.20;;;;;;4069532;29;20095;-63
2023/08/24 10:36:48;;;;;;;11.45;3.00;;;27.40;91.90;;;;;;4069690;29;20465;-62
2023/08/24 10:38:50;;;;;;;7.35;3.03;;;27.40;91.60;;;;;;4069458;29;20083;-63
2023/08/24 10:40:53;;;;;;;8.18;3.35;;;27.40;91.70;;;;;;4070744;29;20466;-62